Time;durP1;ratioP1;P1;durP2;ratioP2;P2;SDS_P1;SDS_P2;PMS_P1;PMS_P2;Temp;Humidity;BMP_temperature;BMP_pressure;BME280_temperature;BME280_humidity;BME280_pressure;Samples;Min_cycle;Max_cycle;Signal;HPM_P1;HPM_P2
2023/12/04 00:00:15;;;;;;;9.70;4.00;;;7.20;99.90;;;;;;5027046;28;20042;-66
2023/12/04 00:02:42;;;;;;;9.55;3.38;;;7.20;99.90;;;;;;5030478;28;20099;-66
2023/12/04 00:05:09;;;;;;;6.93;3.50;;;7.10;99.90;;;;;;5028660;28;20358;-66
2023/12/04 00:07:35;;;;;;;15.73;4.63;;;7.10;99.90;;;;;;5030401;28;20049;-66
2023/12/04 00:10:03;;;;;;;15.57;4.43;;;7.00;99.90;;;;;;5024322;28;20057;-66
2023/12/04 00:12:29;;;;;;;11.35;4.47;;;7.10;99.90;;;;;;5019773;28;20214;-66
2023/12/04 00:14:57;;;;;;;10.20;4.95;;;7.00;99.90;;;;;;5011556;28;20064;-64
2023/12/04 00:17:23;;;;;;;11.40;4.45;;;7.00;99.90;;;;;;5030547;28;20049;-65
2023/12/04 00:19:51;;;;;;;9.55;3.90;;;7.00;99.90;;;;;;5028663;28;20435;-65
2023/12/04 00:22:18;;;;;;;11.30;5.28;;;6.90;99.90;;;;;;5027903;28;20359;-67
2023/12/04 00:24:44;;;;;;;7.25;4.10;;;6.90;99.90;;;;;;5028576;28;20546;-66
2023/12/04 00:27:11;;;;;;;12.50;4.72;;;6.90;99.90;;;;;;5029629;28;20480;-64
2023/12/04 00:29:38;;;;;;;11.27;3.92;;;6.90;99.90;;;;;;5030036;28;20509;-64
2023/12/04 00:32:05;;;;;;;12.40;4.20;;;6.80;99.90;;;;;;5028801;28;20123;-65
2023/12/04 00:34:32;;;;;;;12.75;4.57;;;6.80;99.90;;;;;;5029403;28;20172;-64
2023/12/04 00:36:59;;;;;;;6.28;3.63;;;6.80;99.90;;;;;;5029100;28;20065;-64
2023/12/04 00:39:26;;;;;;;12.15;4.43;;;6.70;99.90;;;;;;5029854;28;20041;-65
2023/12/04 00:41:53;;;;;;;10.10;4.78;;;6.70;99.90;;;;;;4994649;28;20041;-67
2023/12/04 00:44:20;;;;;;;11.80;4.60;;;6.70;99.90;;;;;;5029035;28;20049;-66
2023/12/04 00:46:47;;;;;;;6.75;3.45;;;6.60;99.90;;;;;;5029132;28;20053;-65
2023/12/04 00:49:13;;;;;;;10.68;3.70;;;6.60;99.90;;;;;;5023794;28;20061;-67
2023/12/04 00:51:40;;;;;;;9.60;3.83;;;6.60;99.90;;;;;;5029253;28;20045;-67
2023/12/04 00:54:07;;;;;;;9.98;3.70;;;6.60;99.90;;;;;;5029294;28;20045;-67
2023/12/04 00:56:34;;;;;;;9.57;3.85;;;6.50;99.90;;;;;;5028961;28;20045;-66
2023/12/04 00:59:01;;;;;;;13.82;3.55;;;6.50;99.90;;;;;;5026559;28;20110;-66
2023/12/04 01:01:28;;;;;;;16.70;4.53;;;6.50;99.90;;;;;;5028517;28;20496;-65
2023/12/04 01:03:55;;;;;;;10.25;3.58;;;6.50;99.90;;;;;;5028741;28;20041;-65
2023/12/04 01:06:25;;;;;;;5.40;3.22;;;6.50;99.90;;;;;;4746397;28;10000872;-64
2023/12/04 01:08:53;;;;;;;7.05;3.50;;;6.50;99.90;;;;;;5030185;28;20248;-65
2023/12/04 01:11:20;;;;;;;10.02;3.50;;;6.40;99.90;;;;;;5005477;28;20076;-65
2023/12/04 01:13:48;;;;;;;7.93;4.05;;;6.40;99.90;;;;;;5030842;28;20057;-65
2023/12/04 01:16:14;;;;;;;10.30;3.42;;;6.40;99.90;;;;;;4994201;28;20513;-65
2023/12/04 01:18:41;;;;;;;13.40;3.65;;;6.40;99.90;;;;;;5028732;28;20048;-64
2023/12/04 01:21:09;;;;;;;7.82;2.88;;;6.40;99.90;;;;;;5028455;28;20131;-65
2023/12/04 01:23:36;;;;;;;11.93;3.22;;;6.40;99.90;;;;;;5025564;28;20065;-66
2023/12/04 01:26:06;;;;;;;6.22;3.00;;;6.30;99.90;;;;;;5028358;28;20045;-67
2023/12/04 01:28:33;;;;;;;4.97;2.65;;;6.30;99.90;;;;;;5028391;28;20068;-66
2023/12/04 01:31:00;;;;;;;10.32;3.55;;;6.30;99.90;;;;;;5003405;28;20116;-67
2023/12/04 01:33:27;;;;;;;6.63;3.63;;;6.30;99.90;;;;;;5027714;28;20042;-66
2023/12/04 01:35:53;;;;;;;6.68;4.63;;;6.30;99.90;;;;;;5008410;28;20149;-64
2023/12/04 01:38:20;;;;;;;6.40;2.38;;;6.30;99.90;;;;;;5027981;28;20488;-67
2023/12/04 01:40:47;;;;;;;7.22;2.60;;;6.30;99.90;;;;;;5028244;28;20064;-66
2023/12/04 01:43:14;;;;;;;8.57;3.45;;;6.30;99.90;;;;;;5026200;28;20523;-67
2023/12/04 01:45:41;;;;;;;8.88;3.33;;;6.30;99.90;;;;;;5024296;28;20049;-66
2023/12/04 01:48:08;;;;;;;10.10;2.65;;;6.20;99.90;;;;;;5027526;28;20099;-65
2023/12/04 01:50:35;;;;;;;5.97;2.65;;;6.20;99.90;;;;;;5010166;28;20049;-67
2023/12/04 01:53:02;;;;;;;9.20;3.42;;;6.20;99.90;;;;;;5027404;28;20653;-70
2023/12/04 01:55:29;;;;;;;12.98;3.10;;;6.20;99.90;;;;;;5025064;28;20097;-64
2023/12/04 01:57:56;;;;;;;6.22;3.13;;;6.20;99.90;;;;;;5027911;28;20091;-64
2023/12/04 02:00:23;;;;;;;5.53;2.35;;;6.10;99.90;;;;;;5027779;28;20045;-66
2023/12/04 02:02:51;;;;;;;14.27;3.00;;;6.10;99.90;;;;;;5026433;28;20099;-68
2023/12/04 02:05:17;;;;;;;9.38;2.80;;;6.10;99.90;;;;;;5026890;28;20323;-66
2023/12/04 02:07:44;;;;;;;8.13;2.78;;;6.10;99.90;;;;;;5010236;28;20067;-65
2023/12/04 02:10:11;;;;;;;7.53;4.10;;;6.10;99.90;;;;;;5009187;28;20049;-65
2023/12/04 02:12:38;;;;;;;8.65;2.47;;;6.10;99.90;;;;;;5027831;28;20062;-65
2023/12/04 02:15:05;;;;;;;3.95;2.15;;;6.00;99.90;;;;;;5026543;28;20136;-65
2023/12/04 02:17:32;;;;;;;9.18;2.35;;;6.00;99.90;;;;;;5009965;28;20083;-65
2023/12/04 02:19:59;;;;;;;16.95;5.80;;;6.00;99.90;;;;;;5010074;28;20050;-66
2023/12/04 02:22:26;;;;;;;9.88;2.75;;;6.00;99.90;;;;;;5027913;28;20050;-66
2023/12/04 02:24:58;;;;;;;7.68;2.83;;;5.90;99.90;;;;;;5026850;28;20056;-66
2023/12/04 02:27:32;;;;;;;7.55;2.13;;;5.90;99.90;;;;;;5028064;28;20131;-66
2023/12/04 02:30:02;;;;;;;4.43;1.80;;;5.90;99.90;;;;;;5027825;28;20132;-65
2023/12/04 02:32:31;;;;;;;15.13;2.45;;;5.90;99.90;;;;;;5010519;28;20053;-65
2023/12/04 02:34:58;;;;;;;6.88;2.35;;;5.90;99.90;;;;;;5026448;28;20045;-65
2023/12/04 02:37:25;;;;;;;11.40;2.00;;;5.90;99.90;;;;;;5010221;28;20107;-66
2023/12/04 02:39:54;;;;;;;10.80;2.30;;;5.90;99.90;;;;;;5009503;28;20099;-66
2023/12/04 02:42:25;;;;;;;4.35;2.15;;;5.90;99.90;;;;;;5010314;28;20050;-66
2023/12/04 02:44:52;;;;;;;10.57;3.15;;;5.90;99.90;;;;;;5026820;28;20049;-66
2023/12/04 02:47:19;;;;;;;8.55;1.90;;;5.90;99.90;;;;;;5030286;28;20045;-65
2023/12/04 02:49:46;;;;;;;6.10;1.75;;;5.90;99.90;;;;;;5030901;28;20061;-65
2023/12/04 02:52:13;;;;;;;6.35;2.03;;;5.90;99.90;;;;;;5030994;28;20107;-66
2023/12/04 02:54:39;;;;;;;7.90;1.67;;;5.90;99.90;;;;;;5031388;28;20045;-66
2023/12/04 02:57:06;;;;;;;8.90;1.83;;;5.90;99.90;;;;;;5031176;28;20053;-65
2023/12/04 02:59:33;;;;;;;4.32;1.30;;;5.90;99.90;;;;;;5031768;28;20087;-66
2023/12/04 03:02:00;;;;;;;2.92;1.50;;;6.00;99.90;;;;;;5014137;28;20077;-65
2023/12/04 03:04:28;;;;;;;10.77;3.53;;;6.00;99.90;;;;;;5029398;28;20584;-65
2023/12/04 03:06:57;;;;;;;6.95;1.40;;;5.90;99.90;;;;;;5029347;28;20073;-66
2023/12/04 03:09:23;;;;;;;5.60;1.60;;;6.00;99.90;;;;;;5031220;28;20045;-65
2023/12/04 03:12:10;;;;;;;7.10;1.50;;;6.00;99.90;;;;;;5011393;28;20060;-67
2023/12/04 03:14:37;;;;;;;4.78;1.13;;;6.00;99.90;;;;;;5030849;28;20075;-66
2023/12/04 03:17:04;;;;;;;2.97;1.33;;;6.00;99.90;;;;;;5030649;28;20091;-66
2023/12/04 03:19:31;;;;;;;7.68;1.50;;;6.00;99.90;;;;;;5030972;28;20127;-66
2023/12/04 03:21:59;;;;;;;5.45;1.58;;;6.00;99.90;;;;;;5025816;28;20045;-66
2023/12/04 03:24:26;;;;;;;6.15;2.08;;;6.00;99.90;;;;;;5030798;28;20046;-66
2023/12/04 03:26:53;;;;;;;8.38;1.58;;;6.00;99.90;;;;;;5030475;28;20508;-65
2023/12/04 03:29:20;;;;;;;4.50;2.70;;;6.00;99.90;;;;;;5028958;28;20053;-65
2023/12/04 03:31:46;;;;;;;6.28;1.50;;;6.00;99.90;;;;;;5029588;28;20045;-65
2023/12/04 03:34:13;;;;;;;6.03;2.17;;;6.00;99.90;;;;;;5030373;28;20045;-65
2023/12/04 03:36:40;;;;;;;3.88;1.45;;;6.20;99.90;;;;;;5030123;28;20107;-65
2023/12/04 03:39:07;;;;;;;5.20;1.20;;;6.00;99.90;;;;;;5027908;28;20049;-66
2023/12/04 03:41:34;;;;;;;3.85;2.05;;;6.00;99.90;;;;;;5008176;28;20057;-66
2023/12/04 03:44:01;;;;;;;7.85;1.30;;;6.00;99.90;;;;;;5030068;28;20111;-66
2023/12/04 03:46:27;;;;;;;6.72;1.45;;;6.10;99.90;;;;;;5030386;28;20513;-66
2023/12/04 03:48:55;;;;;;;1.38;1.25;;;6.00;99.90;;;;;;5030382;28;20049;-66
2023/12/04 03:51:22;;;;;;;6.30;1.30;;;6.00;99.90;;;;;;5030650;28;20053;-66
2023/12/04 03:53:49;;;;;;;3.20;2.28;;;6.00;99.90;;;;;;5015946;28;20045;-66
2023/12/04 03:56:16;;;;;;;8.48;1.48;;;6.10;99.90;;;;;;5033410;28;20095;-65
2023/12/04 03:58:43;;;;;;;3.38;1.33;;;6.00;99.90;;;;;;5012938;28;20049;-65
2023/12/04 04:01:10;;;;;;;8.85;1.38;;;6.10;99.90;;;;;;5031283;28;20056;-65
2023/12/04 04:03:36;;;;;;;8.50;2.00;;;6.10;99.90;;;;;;5030343;28;20046;-66
2023/12/04 04:06:04;;;;;;;10.15;3.72;;;6.10;99.90;;;;;;5027811;28;20049;-66
2023/12/04 04:08:30;;;;;;;5.45;1.27;;;6.10;99.90;;;;;;5029942;28;20133;-67
2023/12/04 04:10:58;;;;;;;5.40;1.25;;;6.10;99.90;;;;;;5024163;28;20057;-68
2023/12/04 04:13:25;;;;;;;2.92;1.13;;;6.10;99.90;;;;;;5029374;28;20371;-68
2023/12/04 04:15:51;;;;;;;3.55;1.45;;;6.10;99.90;;;;;;5028490;28;20046;-66
2023/12/04 04:18:18;;;;;;;4.75;1.20;;;6.10;99.90;;;;;;5030302;28;20132;-66
2023/12/04 04:20:45;;;;;;;2.75;1.20;;;6.10;99.90;;;;;;5020803;28;20045;-67
2023/12/04 04:23:12;;;;;;;4.32;1.33;;;6.20;99.90;;;;;;5029477;28;20080;-66
2023/12/04 04:25:39;;;;;;;5.68;1.52;;;6.20;99.90;;;;;;5012004;28;20037;-66
2023/12/04 04:28:05;;;;;;;6.40;1.67;;;6.20;99.90;;;;;;5029569;28;20042;-66
2023/12/04 04:30:32;;;;;;;2.88;1.45;;;6.20;99.90;;;;;;5029848;28;20136;-66
2023/12/04 04:33:00;;;;;;;3.53;1.17;;;6.20;99.90;;;;;;5029075;28;20049;-66
2023/12/04 04:35:26;;;;;;;4.70;1.35;;;6.10;99.90;;;;;;5011937;28;20037;-66
2023/12/04 04:37:53;;;;;;;6.78;1.95;;;6.10;99.90;;;;;;5026115;28;20092;-66
2023/12/04 04:40:20;;;;;;;6.00;2.20;;;6.10;99.90;;;;;;5029190;28;20553;-66
2023/12/04 04:42:48;;;;;;;7.07;2.13;;;6.20;99.90;;;;;;5025272;28;20046;-66
2023/12/04 04:45:15;;;;;;;4.18;1.60;;;6.20;99.90;;;;;;5027451;28;20049;-67
2023/12/04 04:47:41;;;;;;;4.07;1.85;;;6.20;99.90;;;;;;5010997;28;20049;-67
2023/12/04 04:50:08;;;;;;;2.47;1.30;;;6.20;99.90;;;;;;5028053;28;20058;-66
2023/12/04 04:52:35;;;;;;;8.20;1.67;;;6.20;99.90;;;;;;5029263;28;20076;-67
2023/12/04 04:55:04;;;;;;;5.18;1.88;;;6.20;99.90;;;;;;5028872;28;20087;-66
2023/12/04 04:57:31;;;;;;;14.88;2.03;;;6.10;99.90;;;;;;5011979;28;20361;-66
2023/12/04 04:59:58;;;;;;;6.15;1.88;;;6.10;99.90;;;;;;5027521;28;20040;-66
2023/12/04 05:02:25;;;;;;;6.45;1.75;;;6.10;99.90;;;;;;5024712;28;20041;-66
2023/12/04 05:04:51;;;;;;;4.50;1.35;;;6.10;99.90;;;;;;5028138;28;20041;-66
2023/12/04 05:07:18;;;;;;;4.60;2.20;;;6.10;99.90;;;;;;5034941;28;20070;-67
2023/12/04 05:09:45;;;;;;;7.35;1.92;;;6.10;99.90;;;;;;5006537;28;20096;-66
2023/12/04 05:12:12;;;;;;;5.88;1.60;;;6.10;99.90;;;;;;5011654;28;20045;-66
2023/12/04 05:14:39;;;;;;;7.22;1.65;;;6.10;99.90;;;;;;5027764;28;20045;-67
2023/12/04 05:17:06;;;;;;;4.20;2.03;;;6.10;99.90;;;;;;5028717;28;20050;-66
2023/12/04 05:19:33;;;;;;;5.15;1.52;;;6.10;99.90;;;;;;5028154;28;20041;-66
2023/12/04 05:22:00;;;;;;;3.25;1.40;;;6.10;99.90;;;;;;5028112;28;20049;-66
2023/12/04 05:24:27;;;;;;;3.05;1.60;;;6.10;99.90;;;;;;5028430;28;20099;-66
2023/12/04 05:26:53;;;;;;;4.65;1.65;;;6.10;99.90;;;;;;5028534;28;20104;-65
2023/12/04 05:29:20;;;;;;;3.60;1.48;;;6.10;99.90;;;;;;5026481;28;20493;-66
2023/12/04 05:31:47;;;;;;;7.55;1.48;;;6.10;99.90;;;;;;5028383;28;20045;-66
2023/12/04 05:34:14;;;;;;;6.03;1.75;;;6.10;99.90;;;;;;5027798;28;20045;-66
2023/12/04 05:36:41;;;;;;;8.15;1.35;;;6.10;99.90;;;;;;5028223;28;20525;-66
2023/12/04 05:39:08;;;;;;;5.00;1.58;;;6.10;99.90;;;;;;5010861;28;20048;-67
2023/12/04 05:41:35;;;;;;;3.70;1.48;;;6.10;99.90;;;;;;5009965;28;20045;-66
2023/12/04 05:44:02;;;;;;;7.10;1.20;;;6.10;99.90;;;;;;5028093;28;20091;-66
2023/12/04 05:46:29;;;;;;;4.25;1.35;;;6.10;99.90;;;;;;5025778;28;20046;-66
2023/12/04 05:48:56;;;;;;;7.72;1.42;;;6.10;99.90;;;;;;5027899;28;20069;-65
2023/12/04 05:51:23;;;;;;;7.32;1.52;;;6.10;99.90;;;;;;5027176;28;20140;-66
2023/12/04 05:53:49;;;;;;;4.00;0.85;;;6.10;99.90;;;;;;5027829;28;20115;-66
2023/12/04 05:56:16;;;;;;;4.30;1.75;;;6.10;99.90;;;;;;5027670;28;20053;-66
2023/12/04 05:58:43;;;;;;;4.97;1.23;;;6.10;99.90;;;;;;5028234;28;20045;-66
2023/12/04 06:01:10;;;;;;;4.63;1.20;;;6.20;99.90;;;;;;5026785;28;20045;-66
2023/12/04 06:03:37;;;;;;;4.90;1.25;;;6.20;99.90;;;;;;5027467;28;20045;-66
2023/12/04 06:06:04;;;;;;;3.15;1.13;;;6.20;99.90;;;;;;5027777;28;20072;-66
2023/12/04 06:08:31;;;;;;;3.70;0.80;;;6.20;99.90;;;;;;5027821;28;20049;-66
2023/12/04 06:10:58;;;;;;;4.20;1.15;;;6.20;99.90;;;;;;5023975;28;20456;-66
2023/12/04 06:13:25;;;;;;;3.22;0.88;;;6.20;99.90;;;;;;5010001;28;20463;-66
2023/12/04 06:15:52;;;;;;;15.05;3.05;;;6.20;99.90;;;;;;5021408;28;20111;-66
2023/12/04 06:18:20;;;;;;;3.95;1.77;;;6.20;99.90;;;;;;5020405;28;20555;-68
2023/12/04 06:20:48;;;;;;;2.83;1.17;;;6.20;99.90;;;;;;4998449;28;20061;-67
2023/12/04 06:23:15;;;;;;;2.35;1.27;;;6.20;99.90;;;;;;5026194;28;20057;-68
2023/12/04 06:25:43;;;;;;;1.30;1.10;;;6.20;99.90;;;;;;5024156;28;20459;-67
2023/12/04 06:28:10;;;;;;;2.95;1.10;;;6.20;99.90;;;;;;5009900;28;20115;-67
2023/12/04 06:30:37;;;;;;;5.72;1.27;;;6.20;99.90;;;;;;5027751;28;20046;-67
2023/12/04 06:33:05;;;;;;;2.45;0.73;;;6.20;99.90;;;;;;5009379;28;20052;-67
2023/12/04 06:35:32;;;;;;;3.20;1.25;;;6.20;99.90;;;;;;5021413;28;20058;-66
2023/12/04 06:38:00;;;;;;;3.70;1.20;;;6.20;99.90;;;;;;5025385;28;20129;-65
2023/12/04 06:40:27;;;;;;;2.83;1.30;;;6.20;99.90;;;;;;5008849;28;20479;-66
2023/12/04 06:42:54;;;;;;;5.47;2.45;;;6.20;99.90;;;;;;5023388;28;20087;-66
2023/12/04 06:45:21;;;;;;;3.33;1.05;;;6.20;99.90;;;;;;5027751;28;20041;-67
2023/12/04 06:47:48;;;;;;;2.35;1.10;;;6.20;99.90;;;;;;5027472;28;20054;-67
2023/12/04 06:50:15;;;;;;;5.95;1.05;;;6.30;99.90;;;;;;5022988;28;20050;-66
2023/12/04 06:52:42;;;;;;;3.55;1.23;;;6.30;99.90;;;;;;4677643;28;10000343;-67
2023/12/04 06:55:09;;;;;;;5.00;1.55;;;6.30;99.90;;;;;;5018126;28;20416;-67
2023/12/04 06:57:36;;;;;;;5.47;1.45;;;6.30;99.90;;;;;;5013096;28;20060;-65
2023/12/04 07:00:04;;;;;;;3.50;1.27;;;6.30;99.90;;;;;;5024523;28;20057;-66
2023/12/04 07:02:48;;;;;;;5.53;1.40;;;6.30;99.90;;;;;;5001801;28;20075;-68
2023/12/04 07:05:16;;;;;;;4.47;1.33;;;6.30;99.90;;;;;;5023338;28;20049;-68
2023/12/04 07:07:43;;;;;;;4.25;2.05;;;6.30;99.90;;;;;;5023472;28;20046;-67
2023/12/04 07:10:14;;;;;;;3.80;1.25;;;6.30;99.90;;;;;;5024653;28;20065;-67
2023/12/04 07:12:42;;;;;;;3.42;1.23;;;6.30;99.90;;;;;;5024606;28;20500;-67
2023/12/04 07:15:11;;;;;;;1.40;1.00;;;6.30;99.90;;;;;;4996669;28;20046;-67
2023/12/04 07:17:38;;;;;;;7.53;2.05;;;6.30;99.90;;;;;;5019066;28;20055;-69
2023/12/04 07:20:08;;;;;;;4.03;1.70;;;6.30;99.90;;;;;;5023969;28;20045;-68
2023/12/04 07:22:35;;;;;;;3.38;1.55;;;6.30;99.90;;;;;;5016134;28;20085;-67
2023/12/04 07:25:07;;;;;;;2.05;1.45;;;6.30;99.90;;;;;;5026540;28;20064;-67
2023/12/04 07:27:34;;;;;;;7.40;1.35;;;6.30;99.90;;;;;;5028292;28;20420;-68
2023/12/04 07:30:02;;;;;;;7.00;1.40;;;6.30;99.90;;;;;;5026144;28;20079;-67
2023/12/04 07:32:30;;;;;;;5.50;1.27;;;6.30;99.90;;;;;;5022311;28;20407;-67
2023/12/04 07:34:58;;;;;;;6.45;1.52;;;6.30;99.90;;;;;;5020830;28;20041;-67
2023/12/04 07:37:26;;;;;;;4.85;1.70;;;6.30;99.90;;;;;;5027121;28;20084;-65
2023/12/04 07:39:53;;;;;;;4.93;1.92;;;6.40;99.90;;;;;;5009505;28;20183;-68
2023/12/04 07:42:20;;;;;;;3.33;1.70;;;6.40;99.90;;;;;;5027663;28;20053;-69
2023/12/04 07:44:47;;;;;;;2.67;1.38;;;6.40;99.90;;;;;;4996287;28;20115;-66
2023/12/04 07:47:15;;;;;;;7.65;1.48;;;6.30;99.90;;;;;;5013323;28;20134;-66
2023/12/04 07:49:44;;;;;;;3.55;1.70;;;6.40;99.90;;;;;;5029035;28;20136;-66
2023/12/04 07:52:11;;;;;;;7.75;1.90;;;6.40;99.90;;;;;;5021353;28;20060;-66
2023/12/04 07:54:39;;;;;;;3.35;1.40;;;6.40;99.90;;;;;;5010633;28;20041;-65
2023/12/04 07:57:06;;;;;;;3.97;1.42;;;6.40;99.90;;;;;;5025865;28;20080;-66
2023/12/04 07:59:33;;;;;;;3.88;1.77;;;6.40;99.90;;;;;;5016442;28;20042;-66
2023/12/04 08:01:59;;;;;;;4.63;1.77;;;6.40;99.90;;;;;;5023617;28;20053;-64
2023/12/04 08:04:27;;;;;;;9.63;2.20;;;6.40;99.90;;;;;;5026993;28;20046;-65
2023/12/04 08:06:54;;;;;;;4.97;2.22;;;6.40;99.90;;;;;;5021204;28;20121;-65
2023/12/04 08:09:21;;;;;;;6.90;1.60;;;6.40;99.90;;;;;;5022646;28;20049;-65
2023/12/04 08:11:48;;;;;;;6.63;1.73;;;6.40;99.90;;;;;;5009308;28;20053;-65
2023/12/04 08:14:16;;;;;;;3.20;1.67;;;6.40;99.90;;;;;;5015188;28;20058;-65
2023/12/04 08:16:42;;;;;;;5.82;2.10;;;6.40;99.90;;;;;;5007445;28;20049;-65
2023/12/04 08:19:09;;;;;;;3.60;1.92;;;6.40;99.90;;;;;;5016491;28;20089;-65
2023/12/04 08:21:36;;;;;;;6.85;1.98;;;6.40;99.90;;;;;;5021005;28;20084;-66
2023/12/04 08:24:03;;;;;;;10.90;2.00;;;6.40;99.90;;;;;;5019388;28;20493;-65
2023/12/04 08:26:30;;;;;;;3.58;1.85;;;6.50;99.90;;;;;;5022288;28;20054;-65
2023/12/04 08:28:57;;;;;;;3.67;1.65;;;6.50;99.90;;;;;;5019145;28;20099;-65
2023/12/04 08:31:24;;;;;;;7.93;2.78;;;6.50;99.90;;;;;;5001236;28;20049;-66
2023/12/04 08:33:51;;;;;;;4.50;2.38;;;6.60;99.90;;;;;;5001519;28;20540;-66
2023/12/04 08:36:18;;;;;;;3.20;1.42;;;6.60;99.90;;;;;;5020504;28;20133;-65
2023/12/04 08:38:44;;;;;;;3.67;1.75;;;6.60;99.90;;;;;;5020900;28;20045;-65
2023/12/04 08:41:11;;;;;;;2.60;1.63;;;6.60;99.90;;;;;;5020913;28;20080;-65
2023/12/04 08:43:38;;;;;;;3.45;1.80;;;6.70;99.90;;;;;;5027859;28;20053;-65
2023/12/04 08:46:05;;;;;;;2.60;1.30;;;6.70;99.90;;;;;;5029236;28;20062;-65
2023/12/04 08:48:32;;;;;;;2.92;1.50;;;6.80;99.90;;;;;;5025804;28;20065;-65
2023/12/04 08:50:59;;;;;;;5.88;1.50;;;6.80;99.90;;;;;;4997972;28;20080;-66
2023/12/04 08:53:26;;;;;;;4.07;1.25;;;6.70;99.90;;;;;;5017444;28;20921;-66
2023/12/04 08:55:54;;;;;;;3.58;1.40;;;6.80;99.90;;;;;;5024610;28;20120;-65
2023/12/04 08:58:21;;;;;;;7.50;2.28;;;6.70;99.90;;;;;;5019424;28;20057;-63
2023/12/04 09:00:48;;;;;;;5.03;1.13;;;6.80;99.90;;;;;;5021973;28;20046;-65
2023/12/04 09:03:15;;;;;;;1.80;1.23;;;6.80;99.90;;;;;;5011489;28;20056;-66
2023/12/04 09:05:52;;;;;;;2.13;1.00;;;6.80;99.90;;;;;;5016422;28;20038;-66
2023/12/04 09:08:19;;;;;;;3.33;1.52;;;6.70;99.90;;;;;;4678034;28;10000281;-66
2023/12/04 09:11:03;;;;;;;4.90;1.63;;;6.80;99.90;;;;;;5019030;28;20077;-64
2023/12/04 09:13:48;;;;;;;5.95;1.60;;;6.80;99.90;;;;;;5019932;28;20566;-64
2023/12/04 09:16:15;;;;;;;2.97;1.33;;;6.80;99.90;;;;;;5012030;28;20053;-64
2023/12/04 09:18:42;;;;;;;4.47;1.60;;;6.80;99.90;;;;;;5029266;28;20489;-63
2023/12/04 09:21:09;;;;;;;6.65;1.70;;;6.80;99.90;;;;;;5024368;28;20037;-64
2023/12/04 09:23:36;;;;;;;2.17;1.42;;;6.80;99.90;;;;;;5024530;28;20049;-63
2023/12/04 09:26:03;;;;;;;3.58;1.73;;;6.80;99.90;;;;;;5028348;28;20042;-64
2023/12/04 09:28:30;;;;;;;5.07;2.60;;;6.90;99.90;;;;;;5008666;28;20136;-63
2023/12/04 09:30:57;;;;;;;3.15;1.40;;;6.90;99.90;;;;;;5027074;28;20041;-63
2023/12/04 09:33:24;;;;;;;4.30;1.88;;;6.90;99.90;;;;;;5003825;28;20057;-63
2023/12/04 09:35:51;;;;;;;2.28;1.27;;;7.00;99.90;;;;;;5021534;28;20127;-64
2023/12/04 09:38:18;;;;;;;3.55;1.85;;;6.90;99.90;;;;;;5016169;28;20524;-63
2023/12/04 09:40:45;;;;;;;2.60;1.20;;;6.90;99.90;;;;;;5016769;28;20531;-64
2023/12/04 09:43:12;;;;;;;3.92;1.30;;;7.00;99.90;;;;;;5007529;28;20049;-64
2023/12/04 09:45:40;;;;;;;3.72;1.42;;;7.00;99.90;;;;;;5027373;28;20099;-64
2023/12/04 09:48:09;;;;;;;2.55;1.45;;;7.00;99.90;;;;;;5021376;28;20858;-64
2023/12/04 09:50:36;;;;;;;3.40;1.83;;;7.00;99.90;;;;;;5025222;28;20095;-63
2023/12/04 09:53:03;;;;;;;3.85;1.48;;;7.10;99.90;;;;;;5002991;28;20046;-63
2023/12/04 09:55:30;;;;;;;4.28;1.50;;;7.10;99.90;;;;;;5025890;28;20428;-64
2023/12/04 09:57:58;;;;;;;4.70;1.40;;;7.10;99.90;;;;;;5028096;28;20133;-64
2023/12/04 10:00:24;;;;;;;4.45;1.50;;;7.10;99.90;;;;;;5027583;28;20060;-64
2023/12/04 10:02:52;;;;;;;2.13;1.20;;;7.10;99.90;;;;;;5006139;28;20500;-65
2023/12/04 10:05:20;;;;;;;3.30;1.30;;;7.10;99.90;;;;;;5020928;28;20107;-64
2023/12/04 10:07:48;;;;;;;6.78;1.73;;;7.10;99.90;;;;;;5015839;28;20069;-64
2023/12/04 10:10:14;;;;;;;1.98;1.10;;;7.10;99.90;;;;;;5026951;28;20484;-65
2023/12/04 10:12:43;;;;;;;1.63;0.95;;;7.10;99.90;;;;;;5022802;28;20045;-64
2023/12/04 10:15:10;;;;;;;3.65;1.75;;;7.20;99.90;;;;;;5024151;28;20053;-64
2023/12/04 10:17:41;;;;;;;6.28;1.73;;;7.20;99.90;;;;;;5022369;28;20041;-66
2023/12/04 10:20:12;;;;;;;5.60;1.80;;;7.20;99.90;;;;;;5027053;28;20084;-65
2023/12/04 10:22:40;;;;;;;5.60;1.23;;;7.20;99.90;;;;;;5027899;28;20153;-64
2023/12/04 10:25:16;;;;;;;2.63;1.48;;;7.20;99.90;;;;;;5026982;28;20053;-65
2023/12/04 10:27:44;;;;;;;3.63;1.52;;;7.30;99.90;;;;;;5010344;28;20052;-65
2023/12/04 10:30:28;;;;;;;6.70;1.30;;;7.30;99.90;;;;;;5009304;28;20132;-68
2023/12/04 10:32:55;;;;;;;;;;;7.30;99.90;;;;;;5009395;28;20045;-64
2023/12/04 10:35:22;;;;;;;8.90;1.92;;;7.30;99.90;;;;;;5027097;28;19975;-64
2023/12/04 10:37:53;;;;;;;5.72;1.90;;;7.30;99.90;;;;;;5027725;28;20099;-64
2023/12/04 10:40:27;;;;;;;6.07;2.00;;;7.30;99.90;;;;;;5009629;28;20045;-65
2023/12/04 10:43:10;;;;;;;4.43;1.70;;;7.30;99.90;;;;;;5026852;28;20049;-64
2023/12/04 10:45:38;;;;;;;3.50;1.92;;;7.30;99.90;;;;;;5027433;28;20050;-64
2023/12/04 10:48:05;;;;;;;5.93;1.48;;;7.30;99.90;;;;;;5009760;28;20049;-65
2023/12/04 10:50:37;;;;;;;4.13;1.75;;;7.30;99.90;;;;;;5009713;28;20343;-64
2023/12/04 10:53:05;;;;;;;6.22;2.08;;;7.30;99.90;;;;;;5023071;28;20111;-65
2023/12/04 10:55:32;;;;;;;6.70;1.60;;;7.40;99.90;;;;;;5027604;28;20041;-65
2023/12/04 10:58:05;;;;;;;5.88;2.75;;;7.40;99.90;;;;;;5009238;28;20053;-65
2023/12/04 11:00:54;;;;;;;7.15;1.67;;;7.40;99.90;;;;;;5014705;28;20045;-65
2023/12/04 11:03:24;;;;;;;8.40;2.30;;;7.40;99.90;;;;;;5009449;28;20050;-64
2023/12/04 11:06:00;;;;;;;3.45;2.00;;;7.40;99.90;;;;;;5009404;28;20053;-64
2023/12/04 11:08:29;;;;;;;9.80;2.00;;;7.40;99.90;;;;;;5012702;28;20053;-65
2023/12/04 11:11:03;;;;;;;7.28;2.00;;;7.50;99.90;;;;;;5031139;28;20041;-65
2023/12/04 11:13:31;;;;;;;5.85;2.00;;;7.50;99.90;;;;;;5014252;28;20085;-64
2023/12/04 11:16:06;;;;;;;13.25;2.58;;;7.50;99.90;;;;;;5012281;28;20067;-64
2023/12/04 11:18:37;;;;;;;4.95;1.90;;;7.50;99.90;;;;;;5014288;28;20057;-64
2023/12/04 11:21:06;;;;;;;6.53;2.10;;;7.50;99.90;;;;;;5025699;28;20125;-65
2023/12/04 11:23:34;;;;;;;3.80;2.05;;;7.50;99.90;;;;;;5030879;28;20045;-64
2023/12/04 11:26:03;;;;;;;5.40;2.08;;;7.60;99.90;;;;;;5013386;28;20509;-64
2023/12/04 11:28:31;;;;;;;9.02;2.33;;;7.60;99.90;;;;;;5013740;28;20139;-64
2023/12/04 11:30:59;;;;;;;7.55;1.98;;;7.70;99.90;;;;;;5013717;28;20132;-64
2023/12/04 11:33:26;;;;;;;12.13;3.17;;;7.70;99.90;;;;;;5012266;28;20041;-64
2023/12/04 11:35:53;;;;;;;9.80;2.20;;;7.70;99.90;;;;;;5017980;28;20053;-64
2023/12/04 11:38:20;;;;;;;8.55;2.20;;;7.70;99.90;;;;;;5012798;28;20049;-63
2023/12/04 11:40:46;;;;;;;4.90;3.03;;;7.70;99.90;;;;;;5030637;28;20136;-64
2023/12/04 11:43:27;;;;;;;6.93;3.03;;;7.70;99.90;;;;;;5026805;28;20306;-63
2023/12/04 11:46:08;;;;;;;5.07;2.85;;;7.70;99.90;;;;;;5024794;28;20132;-64
2023/12/04 11:48:37;;;;;;;6.07;2.13;;;7.70;99.90;;;;;;5014364;28;20574;-64
2023/12/04 11:51:07;;;;;;;4.53;2.15;;;7.70;99.90;;;;;;5030771;28;20061;-64
2023/12/04 11:53:39;;;;;;;8.32;2.05;;;7.70;99.90;;;;;;5030070;28;20120;-64
2023/12/04 11:56:13;;;;;;;5.78;1.58;;;7.70;99.90;;;;;;5012993;28;20285;-65
2023/12/04 11:58:43;;;;;;;5.93;2.47;;;7.70;99.90;;;;;;5030668;28;20370;-65
2023/12/04 12:01:10;;;;;;;13.13;3.15;;;7.80;99.90;;;;;;5011954;28;20046;-64
2023/12/04 12:03:37;;;;;;;8.13;2.22;;;7.70;99.90;;;;;;5032225;28;20049;-65
2023/12/04 12:06:04;;;;;;;4.90;1.70;;;7.70;99.90;;;;;;5033617;28;20050;-64
2023/12/04 12:08:31;;;;;;;12.80;1.95;;;7.70;99.90;;;;;;5011071;28;20485;-64
2023/12/04 12:10:58;;;;;;;8.05;2.13;;;7.70;99.90;;;;;;5010290;28;20119;-64
2023/12/04 12:13:26;;;;;;;9.02;2.42;;;7.70;99.90;;;;;;5030010;28;20092;-64
2023/12/04 12:15:53;;;;;;;3.80;1.45;;;7.70;99.90;;;;;;5012757;28;20046;-64
2023/12/04 12:18:21;;;;;;;5.93;3.15;;;7.80;99.90;;;;;;5029140;28;20099;-64
2023/12/04 12:20:49;;;;;;;3.85;1.73;;;7.80;99.90;;;;;;5029690;28;20041;-65
2023/12/04 12:23:16;;;;;;;4.32;2.05;;;7.80;99.90;;;;;;5028143;28;20065;-64
2023/12/04 12:25:43;;;;;;;4.97;1.65;;;7.80;99.90;;;;;;5011255;28;20053;-65
2023/12/04 12:28:10;;;;;;;5.70;2.10;;;7.80;99.90;;;;;;5029772;28;20041;-64
2023/12/04 12:30:37;;;;;;;6.63;2.25;;;7.80;99.90;;;;;;5029742;28;20096;-64
2023/12/04 12:33:04;;;;;;;7.72;2.30;;;7.80;99.90;;;;;;5007782;28;20125;-64
2023/12/04 12:35:31;;;;;;;3.83;2.00;;;7.80;99.90;;;;;;5029312;28;20489;-64
2023/12/04 12:37:58;;;;;;;3.22;1.65;;;7.70;99.90;;;;;;5011998;28;20045;-64
2023/12/04 12:40:29;;;;;;;8.77;3.25;;;7.70;99.90;;;;;;4994511;28;20049;-65
2023/12/04 12:43:06;;;;;;;8.63;2.17;;;7.70;99.90;;;;;;5010460;28;20300;-65
2023/12/04 12:45:44;;;;;;;8.23;1.67;;;7.70;99.90;;;;;;5012218;28;20045;-65
2023/12/04 12:48:14;;;;;;;8.68;1.92;;;7.70;99.90;;;;;;5012228;28;20042;-64
2023/12/04 12:50:46;;;;;;;14.20;3.72;;;7.70;99.90;;;;;;5028862;28;20461;-64
2023/12/04 12:53:12;;;;;;;6.70;1.85;;;7.80;99.90;;;;;;5029380;28;20081;-64
2023/12/04 12:55:42;;;;;;;6.55;2.60;;;7.80;99.90;;;;;;5028991;28;20068;-64
2023/12/04 12:58:10;;;;;;;6.70;1.77;;;7.70;99.90;;;;;;5028959;28;20053;-64